Terminal Aerodrome Forecast
Issued by NWS

Home | Current Version | Previous Version | Text Only | Print | Product List | Glossary On
Versions: 1 2 3 4 5 6 7 8 9 10 11 12 13 14 15 16 17 18 19 20 21 22 23 24 25 26 27 28 29 30 31 32 33 34 35 36 37 38 39 40 41 42
000
FTUS45 KPSR 280500 CCA
TAFSDL
TAF COR
KSDL 280556Z 2806/2906 12012KT P6SM VCTS BKN100CB BKN150
      TEMPO 2806/2807 12018G28KT
     FM280800 12006KT P6SM BKN100 BKN150
     FM282100 24006KT P6SM FEW110 SCT200
     FM290100 VRB05KT P6SM FEW110 SCT200=

USA.gov is the U.S. government's official web portal to all federal, state and local government web resources and services.